Current | Forecast
Updated: 8:33 AM JST on October 17, 2017
Observed at Hyakuri AB, Japan
Temperature 55°F
Humidity 94%
Dew Point 54°F
Wind North at 4 mph
Pressure 30.21 in (Steady)
Conditions Light Rain
Visibility 3.1 miles
UV 2 out of 16
Clouds (FEW) : 800 ft
Mostly Cloudy (BKN) : 1500 ft
Mostly Cloudy (BKN) : 3000 ft
Yesterday's Maximum 55°F
Yesterday's Minimum 54°F approx.
Yesterday's Heating Degree Days 11 approx.
Sunrise5:47 AM JST
Sunset5:00 PM JST
Moon Rise2:51 AM JST
Moon Set3:51 PM JST
Moon PhaseMoon Phase
Waning Crescent
Raw METARSPECI RJAH 162333Z 35003KT 5000 -RA BR FEW008 BKN015 BKN030 13/12 Q1023 RMK 1ST008 5SC015 5SC030 A3023 VIS NE 4000M


Monday
. High: 75° F.
Tuesday
. High: 77° F.
Wednesday
. High: 66° F.
Thursday
. High: 71° F.
Friday
. High: 73° F.
Saturday
. High: 73° F.
Sunday
. High: 73° F.
Monday
. High: 69° F.

Units: English | Metric

Find the Weather for any City, State or Zipcode, or Country:

U.S. State List | Severe Weather | Tropical Storms | Ski Conditions
United States | Canada | Central America | South America | Asia | Europe | Australia | Africa | Islands

Weather Underground

© Copyright 2017
The Weather Company, LLC